Aérodrome :
LOGIN :

S'inscrire | Disclaimer

   EN    FR    IT 

 










Légende :    VFR   VFR Marginal   IFR   IFR Intensif   IFR Très Intensif
Visi : 
Plafond : 
>= 8 km
>= 3000ft
5 à 8 km
1000 à 3000 ft
1500m à 5 km
500 à 1000 ft
800 à 1500m
200 à 500 ft
< 800m
< 200 ft
Symboles :   Orages  Brouillard  Fortes neiges  Fortes précipitations  Vent > 20 kt
SIGMETs :   Divers  Orages  Givrage  Turbulence  Onde Orograph.  Cendres Volcan.







- Altitude de l'aérodrome : 86 ft
- Code IATA : HAU


ENHD - Haugesund

DERNIER METAR :
  • 220720Z 14010KT 8000 -DZ BKN003 BKN005 14/13 Q1012

METARs EXPIRÉS :
  • 220650Z 13011KT 2400 DZ SCT003 BKN006 14/13 Q1012
  • 220620Z 13012KT 2200 DZ SCT004 BKN008 14/13 Q1012
  • 220550Z 14011KT 7000 DZ SCT007 BKN010 14/13 Q1013
  • 220520Z 14011KT 7000 -DZ SCT007 BKN010 14/13 Q1013
  • 220450Z 12012KT 9999 -DZ SCT007 BKN010 14/12 Q1013

TAF AMD TAF ENHD
Valide du 22 à 06h jusqu'au 22 à 15h UTC


220619Z 2206/2215 14012KT 9999 -RA SCT005 BKN010
TEMPO 2206/2212 2000 RADZ BR OVC004
Pas de NOTAMs connus pour ce terrain.



MET'MAP, la Météo Aéronautique d'un coup d'oeil ! - Copyright ORBIFLY Décembre 2007 - Disclaimer

ORBIFLY MET'MAP TEAM :

Programmation & Développement : Alexandra Zaïnal
Conception & Développement : Baudouin d'Aumeries
Co-Programmation & Développement : Marc-Olivier Méhu
Soutien technique & logistique : Manuel Goepfert

Contact : metmap@orbifly.com




SOURCES & CREDITS :

   NOAA